Pays
Station

 

Conditions  météo  pour  Scatsa/Shetland Island  -  Royaume-Uni    Royaume-Uni

  
14 °C
    
 
 

METAR pour Scatsa/Shetland Island :

EGPM 231820Z AUTO 21016KT 9999 BKN022/// 14/13 Q1016

 

Voici le bulletin pour Scatsa/Shetland Island - Royaume-Uni.
 
Le bulletin a été fait il y a 30 minutes, à 18:20 UTC .
Le vent soufflait à la vitesse de 8.2 mètres par seconde de Sud/Sud-ouest (210°).
 
La température était de 14 °C, avec un point de rosée à 13 °C.
La pression atmosphérique était de 1016 hPa.
L'humidité relative était de 93.7%.
 
La visibilité globale était de supérieure à 10 kilomètres.
 

 
 
 

Pays :   A   B   C   D   E   F   G   H   I   J   K   L   M   N   O   P   Q   R   S   T   U   V   W   Y   Z

 

Partenaires :  Info Météo avec Met'info
Météo Marine avec MeteoMarine.net
Infos Site  |  Infos Légales  |  Crédits  |  Confidentialité
Contactez-nous  |  Ajouter aux favoris
© 2013-2019 METAR - Tous droits réservés